sensor_id;sensor_type;location;lat;lon;timestamp;P1;durP1;ratioP1;P2;durP2;ratioP2
4984;SDS011;2509;49.902;8.600;2023-11-18T00:00:41;34.27;;;20.93;;
4984;SDS011;2509;49.902;8.600;2023-11-18T00:03:44;32.50;;;20.40;;
4984;SDS011;2509;49.902;8.600;2023-11-18T00:06:46;55.43;;;27.17;;
4984;SDS011;2509;49.902;8.600;2023-11-18T00:09:47;38.67;;;21.67;;
4984;SDS011;2509;49.902;8.600;2023-11-18T00:12:50;55.97;;;24.00;;
4984;SDS011;2509;49.902;8.600;2023-11-18T00:15:52;44.53;;;23.90;;
4984;SDS011;2509;49.902;8.600;2023-11-18T00:18:54;83.40;;;29.07;;
4984;SDS011;2509;49.902;8.600;2023-11-18T00:21:56;50.13;;;22.40;;
4984;SDS011;2509;49.902;8.600;2023-11-18T00:24:57;41.33;;;20.93;;
4984;SDS011;2509;49.902;8.600;2023-11-18T00:28:00;43.23;;;23.60;;
4984;SDS011;2509;49.902;8.600;2023-11-18T00:31:02;30.47;;;19.90;;
4984;SDS011;2509;49.902;8.600;2023-11-18T00:34:06;41.53;;;21.97;;
4984;SDS011;2509;49.902;8.600;2023-11-18T00:37:08;43.43;;;22.70;;
4984;SDS011;2509;49.902;8.600;2023-11-18T00:40:10;41.50;;;20.57;;
4984;SDS011;2509;49.902;8.600;2023-11-18T00:43:13;58.20;;;25.60;;
4984;SDS011;2509;49.902;8.600;2023-11-18T00:46:15;33.77;;;20.13;;
4984;SDS011;2509;49.902;8.600;2023-11-18T00:49:17;40.00;;;22.27;;
4984;SDS011;2509;49.902;8.600;2023-11-18T00:52:19;37.03;;;19.67;;
4984;SDS011;2509;49.902;8.600;2023-11-18T00:55:21;34.63;;;21.17;;
4984;SDS011;2509;49.902;8.600;2023-11-18T00:58:24;65.03;;;27.80;;
4984;SDS011;2509;49.902;8.600;2023-11-18T01:01:26;33.77;;;19.80;;
4984;SDS011;2509;49.902;8.600;2023-11-18T01:04:28;28.30;;;18.80;;
4984;SDS011;2509;49.902;8.600;2023-11-18T01:07:32;35.70;;;20.27;;
4984;SDS011;2509;49.902;8.600;2023-11-18T01:10:34;61.13;;;29.30;;
4984;SDS011;2509;49.902;8.600;2023-11-18T01:13:37;32.93;;;19.03;;
4984;SDS011;2509;49.902;8.600;2023-11-18T01:16:39;35.63;;;21.03;;
4984;SDS011;2509;49.902;8.600;2023-11-18T01:19:41;31.07;;;19.80;;
4984;SDS011;2509;49.902;8.600;2023-11-18T01:22:44;37.60;;;20.80;;
4984;SDS011;2509;49.902;8.600;2023-11-18T01:25:46;31.93;;;20.67;;
4984;SDS011;2509;49.902;8.600;2023-11-18T01:28:52;32.03;;;21.83;;
4984;SDS011;2509;49.902;8.600;2023-11-18T01:31:55;96.50;;;37.43;;
4984;SDS011;2509;49.902;8.600;2023-11-18T01:34:58;70.90;;;31.23;;
4984;SDS011;2509;49.902;8.600;2023-11-18T01:38:00;34.70;;;22.80;;
4984;SDS011;2509;49.902;8.600;2023-11-18T01:41:02;47.83;;;25.90;;
4984;SDS011;2509;49.902;8.600;2023-11-18T01:44:06;71.60;;;30.40;;
4984;SDS011;2509;49.902;8.600;2023-11-18T01:47:08;17.20;;;13.00;;
4984;SDS011;2509;49.902;8.600;2023-11-18T01:50:12;16.70;;;12.80;;
4984;SDS011;2509;49.902;8.600;2023-11-18T01:53:15;34.50;;;21.77;;
4984;SDS011;2509;49.902;8.600;2023-11-18T01:56:17;35.60;;;23.60;;
4984;SDS011;2509;49.902;8.600;2023-11-18T01:59:22;47.43;;;26.93;;
4984;SDS011;2509;49.902;8.600;2023-11-18T02:02:26;46.53;;;25.00;;
4984;SDS011;2509;49.902;8.600;2023-11-18T02:05:27;70.20;;;35.93;;
4984;SDS011;2509;49.902;8.600;2023-11-18T02:08:29;38.10;;;22.40;;
4984;SDS011;2509;49.902;8.600;2023-11-18T02:11:40;35.13;;;22.07;;
4984;SDS011;2509;49.902;8.600;2023-11-18T02:14:48;34.00;;;20.40;;
4984;SDS011;2509;49.902;8.600;2023-11-18T02:17:50;32.90;;;19.90;;
4984;SDS011;2509;49.902;8.600;2023-11-18T02:20:54;36.43;;;21.27;;
4984;SDS011;2509;49.902;8.600;2023-11-18T02:23:57;37.70;;;19.50;;
4984;SDS011;2509;49.902;8.600;2023-11-18T02:27:00;62.50;;;20.57;;
4984;SDS011;2509;49.902;8.600;2023-11-18T02:30:02;47.83;;;20.30;;
4984;SDS011;2509;49.902;8.600;2023-11-18T02:33:07;34.93;;;17.97;;
4984;SDS011;2509;49.902;8.600;2023-11-18T02:36:20;49.10;;;21.27;;
4984;SDS011;2509;49.902;8.600;2023-11-18T02:39:36;29.40;;;18.20;;
4984;SDS011;2509;49.902;8.600;2023-11-18T02:42:44;33.90;;;19.37;;
4984;SDS011;2509;49.902;8.600;2023-11-18T02:45:47;52.40;;;23.17;;
4984;SDS011;2509;49.902;8.600;2023-11-18T02:48:50;44.80;;;21.30;;
4984;SDS011;2509;49.902;8.600;2023-11-18T02:51:54;34.87;;;18.70;;
4984;SDS011;2509;49.902;8.600;2023-11-18T02:54:55;27.40;;;17.27;;
4984;SDS011;2509;49.902;8.600;2023-11-18T02:57:59;29.37;;;17.20;;
4984;SDS011;2509;49.902;8.600;2023-11-18T03:01:00;24.93;;;17.90;;
4984;SDS011;2509;49.902;8.600;2023-11-18T03:04:04;33.53;;;19.37;;
4984;SDS011;2509;49.902;8.600;2023-11-18T03:07:07;35.10;;;18.47;;
4984;SDS011;2509;49.902;8.600;2023-11-18T03:10:09;16.17;;;11.97;;
4984;SDS011;2509;49.902;8.600;2023-11-18T03:13:22;41.40;;;15.67;;
4984;SDS011;2509;49.902;8.600;2023-11-18T03:16:23;46.03;;;18.27;;
4984;SDS011;2509;49.902;8.600;2023-11-18T03:19:25;24.73;;;14.00;;
4984;SDS011;2509;49.902;8.600;2023-11-18T03:22:27;37.40;;;17.50;;
4984;SDS011;2509;49.902;8.600;2023-11-18T03:25:29;65.97;;;21.93;;
4984;SDS011;2509;49.902;8.600;2023-11-18T03:28:32;34.17;;;17.47;;
4984;SDS011;2509;49.902;8.600;2023-11-18T03:31:36;64.30;;;25.50;;
4984;SDS011;2509;49.902;8.600;2023-11-18T03:34:38;39.30;;;19.87;;
4984;SDS011;2509;49.902;8.600;2023-11-18T03:37:40;28.73;;;15.40;;
4984;SDS011;2509;49.902;8.600;2023-11-18T03:40:42;29.73;;;16.90;;
4984;SDS011;2509;49.902;8.600;2023-11-18T03:43:46;38.90;;;16.60;;
4984;SDS011;2509;49.902;8.600;2023-11-18T03:46:48;33.20;;;16.60;;
4984;SDS011;2509;49.902;8.600;2023-11-18T03:49:50;32.93;;;17.37;;
4984;SDS011;2509;49.902;8.600;2023-11-18T03:52:54;30.20;;;16.80;;
4984;SDS011;2509;49.902;8.600;2023-11-18T03:55:56;34.17;;;16.27;;
4984;SDS011;2509;49.902;8.600;2023-11-18T03:58:59;35.30;;;19.00;;
4984;SDS011;2509;49.902;8.600;2023-11-18T04:02:01;49.27;;;21.73;;
4984;SDS011;2509;49.902;8.600;2023-11-18T04:05:03;84.70;;;27.30;;
4984;SDS011;2509;49.902;8.600;2023-11-18T04:08:06;61.73;;;25.47;;
4984;SDS011;2509;49.902;8.600;2023-11-18T04:11:07;71.70;;;27.43;;
4984;SDS011;2509;49.902;8.600;2023-11-18T04:14:10;80.77;;;31.53;;
4984;SDS011;2509;49.902;8.600;2023-11-18T04:17:12;158.27;;;43.07;;
4984;SDS011;2509;49.902;8.600;2023-11-18T04:20:14;85.60;;;27.73;;
4984;SDS011;2509;49.902;8.600;2023-11-18T04:23:16;95.77;;;27.87;;
4984;SDS011;2509;49.902;8.600;2023-11-18T04:26:20;91.13;;;24.80;;
4984;SDS011;2509;49.902;8.600;2023-11-18T04:29:24;80.23;;;25.90;;
4984;SDS011;2509;49.902;8.600;2023-11-18T04:32:26;105.90;;;30.07;;
4984;SDS011;2509;49.902;8.600;2023-11-18T04:35:28;180.97;;;39.90;;
4984;SDS011;2509;49.902;8.600;2023-11-18T04:38:30;87.67;;;22.77;;
4984;SDS011;2509;49.902;8.600;2023-11-18T04:41:32;145.83;;;33.03;;
4984;SDS011;2509;49.902;8.600;2023-11-18T04:44:35;126.37;;;30.57;;
4984;SDS011;2509;49.902;8.600;2023-11-18T04:47:37;129.43;;;33.57;;
4984;SDS011;2509;49.902;8.600;2023-11-18T04:50:39;70.23;;;24.30;;
4984;SDS011;2509;49.902;8.600;2023-11-18T04:53:41;76.70;;;23.83;;
4984;SDS011;2509;49.902;8.600;2023-11-18T04:56:44;57.70;;;23.10;;
4984;SDS011;2509;49.902;8.600;2023-11-18T04:59:47;74.90;;;21.97;;
4984;SDS011;2509;49.902;8.600;2023-11-18T05:02:49;156.20;;;34.30;;
4984;SDS011;2509;49.902;8.600;2023-11-18T05:05:51;69.93;;;22.50;;
4984;SDS011;2509;49.902;8.600;2023-11-18T05:08:53;75.53;;;24.37;;
4984;SDS011;2509;49.902;8.600;2023-11-18T05:11:54;110.13;;;30.47;;
4984;SDS011;2509;49.902;8.600;2023-11-18T05:14:57;127.50;;;36.03;;
4984;SDS011;2509;49.902;8.600;2023-11-18T05:17:59;198.67;;;43.33;;
4984;SDS011;2509;49.902;8.600;2023-11-18T05:21:01;83.03;;;27.23;;
4984;SDS011;2509;49.902;8.600;2023-11-18T05:24:05;65.60;;;23.60;;
4984;SDS011;2509;49.902;8.600;2023-11-18T05:27:07;175.90;;;47.53;;
4984;SDS011;2509;49.902;8.600;2023-11-18T05:30:11;136.60;;;33.57;;
4984;SDS011;2509;49.902;8.600;2023-11-18T05:33:13;153.00;;;34.33;;
4984;SDS011;2509;49.902;8.600;2023-11-18T05:36:17;80.20;;;23.63;;
4984;SDS011;2509;49.902;8.600;2023-11-18T05:39:26;129.80;;;38.87;;
4984;SDS011;2509;49.902;8.600;2023-11-18T05:42:31;78.00;;;23.13;;
4984;SDS011;2509;49.902;8.600;2023-11-18T05:45:34;84.83;;;27.43;;
4984;SDS011;2509;49.902;8.600;2023-11-18T05:48:55;164.50;;;44.93;;
4984;SDS011;2509;49.902;8.600;2023-11-18T05:51:57;29.03;;;14.60;;
4984;SDS011;2509;49.902;8.600;2023-11-18T05:54:59;85.03;;;25.10;;
4984;SDS011;2509;49.902;8.600;2023-11-18T05:58:00;69.80;;;26.30;;
4984;SDS011;2509;49.902;8.600;2023-11-18T06:01:04;104.07;;;33.83;;
4984;SDS011;2509;49.902;8.600;2023-11-18T06:04:08;54.23;;;23.30;;
4984;SDS011;2509;49.902;8.600;2023-11-18T06:07:10;36.30;;;18.73;;
4984;SDS011;2509;49.902;8.600;2023-11-18T06:10:13;42.43;;;21.63;;
4984;SDS011;2509;49.902;8.600;2023-11-18T06:13:15;51.80;;;24.20;;
4984;SDS011;2509;49.902;8.600;2023-11-18T06:16:19;54.07;;;22.23;;
4984;SDS011;2509;49.902;8.600;2023-11-18T06:19:22;27.17;;;16.90;;
4984;SDS011;2509;49.902;8.600;2023-11-18T06:22:23;46.77;;;21.90;;
4984;SDS011;2509;49.902;8.600;2023-11-18T06:25:25;35.97;;;19.90;;
4984;SDS011;2509;49.902;8.600;2023-11-18T06:28:27;28.67;;;16.07;;
4984;SDS011;2509;49.902;8.600;2023-11-18T06:31:30;33.00;;;17.53;;
4984;SDS011;2509;49.902;8.600;2023-11-18T06:34:33;22.50;;;17.80;;
4984;SDS011;2509;49.902;8.600;2023-11-18T06:37:34;40.93;;;23.57;;
4984;SDS011;2509;49.902;8.600;2023-11-18T06:40:36;28.07;;;16.30;;
4984;SDS011;2509;49.902;8.600;2023-11-18T06:43:38;34.43;;;17.90;;
4984;SDS011;2509;49.902;8.600;2023-11-18T06:46:53;31.93;;;18.10;;
4984;SDS011;2509;49.902;8.600;2023-11-18T06:49:55;30.50;;;16.10;;
4984;SDS011;2509;49.902;8.600;2023-11-18T06:52:57;25.73;;;15.87;;
4984;SDS011;2509;49.902;8.600;2023-11-18T06:55:58;33.40;;;19.60;;
4984;SDS011;2509;49.902;8.600;2023-11-18T06:59:00;22.63;;;15.23;;
4984;SDS011;2509;49.902;8.600;2023-11-18T07:02:03;30.90;;;18.00;;
4984;SDS011;2509;49.902;8.600;2023-11-18T07:05:06;35.93;;;20.10;;
4984;SDS011;2509;49.902;8.600;2023-11-18T07:08:08;31.93;;;20.00;;
4984;SDS011;2509;49.902;8.600;2023-11-18T07:11:13;40.20;;;23.03;;
4984;SDS011;2509;49.902;8.600;2023-11-18T07:14:15;28.77;;;19.00;;
4984;SDS011;2509;49.902;8.600;2023-11-18T07:17:18;27.43;;;17.27;;
4984;SDS011;2509;49.902;8.600;2023-11-18T07:20:19;32.00;;;19.97;;
4984;SDS011;2509;49.902;8.600;2023-11-18T07:23:21;33.77;;;22.00;;
4984;SDS011;2509;49.902;8.600;2023-11-18T07:26:23;41.77;;;24.20;;
4984;SDS011;2509;49.902;8.600;2023-11-18T07:29:25;33.00;;;21.47;;
4984;SDS011;2509;49.902;8.600;2023-11-18T07:32:28;28.23;;;19.60;;
4984;SDS011;2509;49.902;8.600;2023-11-18T07:35:30;22.00;;;16.17;;
4984;SDS011;2509;49.902;8.600;2023-11-18T07:38:32;35.50;;;20.10;;
4984;SDS011;2509;49.902;8.600;2023-11-18T07:41:34;38.47;;;23.10;;
4984;SDS011;2509;49.902;8.600;2023-11-18T07:44:36;26.43;;;17.80;;
4984;SDS011;2509;49.902;8.600;2023-11-18T07:47:40;30.60;;;20.00;;
4984;SDS011;2509;49.902;8.600;2023-11-18T07:50:42;39.13;;;24.37;;
4984;SDS011;2509;49.902;8.600;2023-11-18T07:53:44;30.73;;;19.77;;
4984;SDS011;2509;49.902;8.600;2023-11-18T07:56:46;32.70;;;21.00;;
4984;SDS011;2509;49.902;8.600;2023-11-18T07:59:48;36.70;;;21.23;;
4984;SDS011;2509;49.902;8.600;2023-11-18T08:02:51;41.13;;;25.03;;
4984;SDS011;2509;49.902;8.600;2023-11-18T08:05:54;34.30;;;21.33;;
4984;SDS011;2509;49.902;8.600;2023-11-18T08:08:56;34.67;;;21.60;;
4984;SDS011;2509;49.902;8.600;2023-11-18T08:11:57;32.47;;;20.60;;
4984;SDS011;2509;49.902;8.600;2023-11-18T08:14:59;30.17;;;19.60;;
4984;SDS011;2509;49.902;8.600;2023-11-18T08:18:04;28.33;;;25.27;;
4984;SDS011;2509;49.902;8.600;2023-11-18T08:21:06;35.47;;;26.40;;
4984;SDS011;2509;49.902;8.600;2023-11-18T08:24:08;26.17;;;17.80;;
4984;SDS011;2509;49.902;8.600;2023-11-18T08:27:10;22.07;;;16.53;;
4984;SDS011;2509;49.902;8.600;2023-11-18T08:30:12;32.90;;;22.20;;
4984;SDS011;2509;49.902;8.600;2023-11-18T08:33:15;36.07;;;22.50;;
4984;SDS011;2509;49.902;8.600;2023-11-18T08:36:17;32.67;;;21.77;;
4984;SDS011;2509;49.902;8.600;2023-11-18T08:39:18;30.93;;;21.57;;
4984;SDS011;2509;49.902;8.600;2023-11-18T08:42:20;35.23;;;22.33;;
4984;SDS011;2509;49.902;8.600;2023-11-18T08:45:23;29.43;;;20.30;;
4984;SDS011;2509;49.902;8.600;2023-11-18T08:48:29;41.20;;;24.70;;
4984;SDS011;2509;49.902;8.600;2023-11-18T08:51:34;29.87;;;20.13;;
4984;SDS011;2509;49.902;8.600;2023-11-18T08:54:37;29.93;;;20.17;;
4984;SDS011;2509;49.902;8.600;2023-11-18T08:57:44;30.30;;;19.53;;
4984;SDS011;2509;49.902;8.600;2023-11-18T09:00:58;37.23;;;22.40;;
4984;SDS011;2509;49.902;8.600;2023-11-18T09:04:07;24.80;;;18.17;;
4984;SDS011;2509;49.902;8.600;2023-11-18T09:07:10;22.43;;;16.10;;
4984;SDS011;2509;49.902;8.600;2023-11-18T09:10:11;29.60;;;18.97;;
4984;SDS011;2509;49.902;8.600;2023-11-18T09:13:13;28.03;;;23.13;;
4984;SDS011;2509;49.902;8.600;2023-11-18T09:16:15;21.23;;;15.00;;
4984;SDS011;2509;49.902;8.600;2023-11-18T09:19:18;22.20;;;15.90;;
4984;SDS011;2509;49.902;8.600;2023-11-18T09:22:21;20.43;;;14.20;;
4984;SDS011;2509;49.902;8.600;2023-11-18T09:25:24;16.23;;;12.37;;
4984;SDS011;2509;49.902;8.600;2023-11-18T09:28:26;19.80;;;13.73;;
4984;SDS011;2509;49.902;8.600;2023-11-18T09:31:29;21.87;;;15.23;;
4984;SDS011;2509;49.902;8.600;2023-11-18T09:34:34;17.23;;;11.87;;
4984;SDS011;2509;49.902;8.600;2023-11-18T09:37:39;16.50;;;11.40;;
4984;SDS011;2509;49.902;8.600;2023-11-18T09:40:42;18.63;;;14.30;;
4984;SDS011;2509;49.902;8.600;2023-11-18T09:43:46;16.60;;;13.20;;
4984;SDS011;2509;49.902;8.600;2023-11-18T09:46:53;20.00;;;13.53;;
4984;SDS011;2509;49.902;8.600;2023-11-18T09:50:06;13.83;;;9.90;;
4984;SDS011;2509;49.902;8.600;2023-11-18T09:53:11;12.50;;;9.53;;
4984;SDS011;2509;49.902;8.600;2023-11-18T09:56:15;11.80;;;8.83;;
4984;SDS011;2509;49.902;8.600;2023-11-18T09:59:32;13.03;;;9.27;;
4984;SDS011;2509;49.902;8.600;2023-11-18T10:02:43;11.60;;;9.30;;
4984;SDS011;2509;49.902;8.600;2023-11-18T10:05:48;9.80;;;6.97;;
4984;SDS011;2509;49.902;8.600;2023-11-18T10:08:54;10.97;;;8.33;;
4984;SDS011;2509;49.902;8.600;2023-11-18T10:11:57;9.43;;;7.20;;
4984;SDS011;2509;49.902;8.600;2023-11-18T10:15:05;7.27;;;6.00;;
4984;SDS011;2509;49.902;8.600;2023-11-18T10:18:11;11.13;;;7.50;;
4984;SDS011;2509;49.902;8.600;2023-11-18T10:21:24;9.60;;;7.40;;
4984;SDS011;2509;49.902;8.600;2023-11-18T10:24:42;9.00;;;7.20;;
4984;SDS011;2509;49.902;8.600;2023-11-18T10:27:45;11.43;;;8.03;;
4984;SDS011;2509;49.902;8.600;2023-11-18T10:30:47;11.20;;;8.77;;
4984;SDS011;2509;49.902;8.600;2023-11-18T10:33:50;9.00;;;6.30;;
4984;SDS011;2509;49.902;8.600;2023-11-18T10:36:59;12.50;;;10.43;;
4984;SDS011;2509;49.902;8.600;2023-11-18T10:40:03;16.27;;;14.70;;
4984;SDS011;2509;49.902;8.600;2023-11-18T10:43:05;11.10;;;9.00;;
4984;SDS011;2509;49.902;8.600;2023-11-18T10:46:10;8.77;;;6.97;;
4984;SDS011;2509;49.902;8.600;2023-11-18T10:49:13;11.27;;;9.23;;
4984;SDS011;2509;49.902;8.600;2023-11-18T10:52:18;9.03;;;7.53;;
4984;SDS011;2509;49.902;8.600;2023-11-18T10:55:20;9.50;;;7.40;;
4984;SDS011;2509;49.902;8.600;2023-11-18T10:58:22;9.23;;;7.10;;
4984;SDS011;2509;49.902;8.600;2023-11-18T11:01:28;9.17;;;6.73;;
4984;SDS011;2509;49.902;8.600;2023-11-18T11:04:33;11.03;;;8.40;;
4984;SDS011;2509;49.902;8.600;2023-11-18T11:07:45;8.70;;;7.40;;
4984;SDS011;2509;49.902;8.600;2023-11-18T11:10:48;7.40;;;6.30;;
4984;SDS011;2509;49.902;8.600;2023-11-18T11:13:54;7.60;;;5.83;;
4984;SDS011;2509;49.902;8.600;2023-11-18T11:16:58;7.10;;;5.13;;
4984;SDS011;2509;49.902;8.600;2023-11-18T11:20:11;9.37;;;6.00;;
4984;SDS011;2509;49.902;8.600;2023-11-18T11:23:27;7.80;;;6.40;;
4984;SDS011;2509;49.902;8.600;2023-11-18T11:26:44;11.07;;;9.97;;
4984;SDS011;2509;49.902;8.600;2023-11-18T11:29:57;6.60;;;5.80;;
4984;SDS011;2509;49.902;8.600;2023-11-18T11:33:12;8.03;;;5.60;;
4984;SDS011;2509;49.902;8.600;2023-11-18T11:36:20;9.00;;;6.70;;
4984;SDS011;2509;49.902;8.600;2023-11-18T11:39:26;7.23;;;6.07;;
4984;SDS011;2509;49.902;8.600;2023-11-18T11:42:30;6.47;;;5.10;;
4984;SDS011;2509;49.902;8.600;2023-11-18T11:45:34;6.70;;;5.00;;
4984;SDS011;2509;49.902;8.600;2023-11-18T11:48:36;7.30;;;5.87;;
4984;SDS011;2509;49.902;8.600;2023-11-18T11:51:44;6.70;;;5.50;;
4984;SDS011;2509;49.902;8.600;2023-11-18T11:58:25;7.90;;;5.30;;
4984;SDS011;2509;49.902;8.600;2023-11-18T12:01:32;6.03;;;4.60;;
4984;SDS011;2509;49.902;8.600;2023-11-18T12:04:37;7.50;;;5.37;;
4984;SDS011;2509;49.902;8.600;2023-11-18T12:07:42;6.70;;;5.37;;
4984;SDS011;2509;49.902;8.600;2023-11-18T12:10:52;6.30;;;4.70;;
4984;SDS011;2509;49.902;8.600;2023-11-18T12:13:59;5.83;;;4.10;;
4984;SDS011;2509;49.902;8.600;2023-11-18T12:17:09;5.80;;;4.80;;
4984;SDS011;2509;49.902;8.600;2023-11-18T12:23:45;5.90;;;4.20;;
4984;SDS011;2509;49.902;8.600;2023-11-18T12:30:51;6.00;;;4.40;;
4984;SDS011;2509;49.902;8.600;2023-11-18T12:34:01;6.40;;;4.27;;
4984;SDS011;2509;49.902;8.600;2023-11-18T12:37:26;8.13;;;4.50;;
4984;SDS011;2509;49.902;8.600;2023-11-18T12:40:52;5.30;;;3.37;;
4984;SDS011;2509;49.902;8.600;2023-11-18T12:44:01;5.90;;;3.40;;
4984;SDS011;2509;49.902;8.600;2023-11-18T12:47:18;6.77;;;4.37;;
4984;SDS011;2509;49.902;8.600;2023-11-18T12:50:22;7.03;;;3.10;;
4984;SDS011;2509;49.902;8.600;2023-11-18T12:53:24;13.90;;;3.63;;
4984;SDS011;2509;49.902;8.600;2023-11-18T12:56:26;4.73;;;2.60;;
4984;SDS011;2509;49.902;8.600;2023-11-18T12:59:34;5.80;;;3.10;;
4984;SDS011;2509;49.902;8.600;2023-11-18T13:02:37;4.80;;;3.03;;
4984;SDS011;2509;49.902;8.600;2023-11-18T13:05:58;5.40;;;3.20;;
4984;SDS011;2509;49.902;8.600;2023-11-18T13:09:28;6.27;;;3.10;;
4984;SDS011;2509;49.902;8.600;2023-11-18T13:12:35;5.93;;;2.60;;
4984;SDS011;2509;49.902;8.600;2023-11-18T13:15:46;5.67;;;2.93;;
4984;SDS011;2509;49.902;8.600;2023-11-18T13:18:50;4.90;;;2.80;;
4984;SDS011;2509;49.902;8.600;2023-11-18T13:22:01;4.40;;;2.33;;
4984;SDS011;2509;49.902;8.600;2023-11-18T13:25:04;5.00;;;2.53;;
4984;SDS011;2509;49.902;8.600;2023-11-18T13:28:07;4.97;;;2.03;;
4984;SDS011;2509;49.902;8.600;2023-11-18T13:31:17;6.10;;;2.43;;
4984;SDS011;2509;49.902;8.600;2023-11-18T13:34:20;4.83;;;2.47;;
4984;SDS011;2509;49.902;8.600;2023-11-18T13:37:22;8.10;;;2.33;;
4984;SDS011;2509;49.902;8.600;2023-11-18T13:40:25;32.67;;;29.90;;
4984;SDS011;2509;49.902;8.600;2023-11-18T13:43:40;14.83;;;2.87;;
4984;SDS011;2509;49.902;8.600;2023-11-18T13:46:44;4.93;;;2.20;;
4984;SDS011;2509;49.902;8.600;2023-11-18T13:49:48;4.20;;;1.67;;
4984;SDS011;2509;49.902;8.600;2023-11-18T13:52:52;4.43;;;2.07;;
4984;SDS011;2509;49.902;8.600;2023-11-18T13:55:54;4.43;;;1.70;;
4984;SDS011;2509;49.902;8.600;2023-11-18T13:58:56;4.47;;;1.73;;
4984;SDS011;2509;49.902;8.600;2023-11-18T14:02:00;5.07;;;1.43;;
4984;SDS011;2509;49.902;8.600;2023-11-18T14:05:03;4.00;;;1.43;;
4984;SDS011;2509;49.902;8.600;2023-11-18T14:08:05;4.73;;;1.40;;
4984;SDS011;2509;49.902;8.600;2023-11-18T14:11:09;4.30;;;1.67;;
4984;SDS011;2509;49.902;8.600;2023-11-18T14:14:11;4.00;;;1.27;;
4984;SDS011;2509;49.902;8.600;2023-11-18T14:17:14;4.00;;;1.00;;
4984;SDS011;2509;49.902;8.600;2023-11-18T14:20:17;4.77;;;1.63;;
4984;SDS011;2509;49.902;8.600;2023-11-18T14:23:22;4.50;;;1.20;;
4984;SDS011;2509;49.902;8.600;2023-11-18T14:26:25;3.93;;;1.33;;
4984;SDS011;2509;49.902;8.600;2023-11-18T14:29:27;4.30;;;1.60;;
4984;SDS011;2509;49.902;8.600;2023-11-18T14:32:30;5.10;;;2.50;;
4984;SDS011;2509;49.902;8.600;2023-11-18T14:35:34;4.60;;;1.50;;
4984;SDS011;2509;49.902;8.600;2023-11-18T14:38:36;4.97;;;1.20;;
4984;SDS011;2509;49.902;8.600;2023-11-18T14:41:37;4.97;;;1.33;;
4984;SDS011;2509;49.902;8.600;2023-11-18T14:44:40;3.80;;;1.10;;
4984;SDS011;2509;49.902;8.600;2023-11-18T14:47:44;4.20;;;1.10;;
4984;SDS011;2509;49.902;8.600;2023-11-18T14:50:47;4.63;;;1.07;;
4984;SDS011;2509;49.902;8.600;2023-11-18T14:53:49;4.73;;;0.93;;
4984;SDS011;2509;49.902;8.600;2023-11-18T14:56:50;3.80;;;0.80;;
4984;SDS011;2509;49.902;8.600;2023-11-18T14:59:52;3.47;;;0.80;;
4984;SDS011;2509;49.902;8.600;2023-11-18T15:02:56;4.30;;;1.20;;
4984;SDS011;2509;49.902;8.600;2023-11-18T15:05:57;4.00;;;1.00;;
4984;SDS011;2509;49.902;8.600;2023-11-18T15:08:59;3.40;;;0.80;;
4984;SDS011;2509;49.902;8.600;2023-11-18T15:12:03;5.17;;;1.50;;
4984;SDS011;2509;49.902;8.600;2023-11-18T15:15:09;5.10;;;1.10;;
4984;SDS011;2509;49.902;8.600;2023-11-18T15:18:19;5.40;;;1.20;;
4984;SDS011;2509;49.902;8.600;2023-11-18T15:21:21;5.10;;;1.40;;
4984;SDS011;2509;49.902;8.600;2023-11-18T15:24:23;7.50;;;1.10;;
4984;SDS011;2509;49.902;8.600;2023-11-18T15:27:24;4.37;;;1.17;;
4984;SDS011;2509;49.902;8.600;2023-11-18T15:30:33;3.80;;;1.20;;
4984;SDS011;2509;49.902;8.600;2023-11-18T15:33:48;6.10;;;1.20;;
4984;SDS011;2509;49.902;8.600;2023-11-18T15:37:09;4.30;;;1.50;;
4984;SDS011;2509;49.902;8.600;2023-11-18T15:40:20;4.30;;;1.30;;
4984;SDS011;2509;49.902;8.600;2023-11-18T15:43:25;8.07;;;6.07;;
4984;SDS011;2509;49.902;8.600;2023-11-18T15:46:28;9.00;;;8.10;;
4984;SDS011;2509;49.902;8.600;2023-11-18T15:49:31;4.40;;;2.13;;
4984;SDS011;2509;49.902;8.600;2023-11-18T15:52:35;3.70;;;1.23;;
4984;SDS011;2509;49.902;8.600;2023-11-18T15:55:37;4.30;;;1.20;;
4984;SDS011;2509;49.902;8.600;2023-11-18T15:58:38;5.03;;;2.00;;
4984;SDS011;2509;49.902;8.600;2023-11-18T16:01:40;4.40;;;1.50;;
4984;SDS011;2509;49.902;8.600;2023-11-18T16:04:43;4.57;;;1.67;;
4984;SDS011;2509;49.902;8.600;2023-11-18T16:07:45;5.10;;;1.77;;
4984;SDS011;2509;49.902;8.600;2023-11-18T16:10:48;4.90;;;1.60;;
4984;SDS011;2509;49.902;8.600;2023-11-18T16:13:50;4.90;;;1.33;;
4984;SDS011;2509;49.902;8.600;2023-11-18T16:16:52;5.00;;;1.50;;
4984;SDS011;2509;49.902;8.600;2023-11-18T16:19:55;5.20;;;1.23;;
4984;SDS011;2509;49.902;8.600;2023-11-18T16:22:58;4.10;;;1.57;;
4984;SDS011;2509;49.902;8.600;2023-11-18T16:26:02;4.30;;;1.50;;
4984;SDS011;2509;49.902;8.600;2023-11-18T16:29:07;3.90;;;1.30;;
4984;SDS011;2509;49.902;8.600;2023-11-18T16:32:08;5.20;;;1.53;;
4984;SDS011;2509;49.902;8.600;2023-11-18T16:35:11;4.37;;;1.20;;
4984;SDS011;2509;49.902;8.600;2023-11-18T16:38:13;4.80;;;1.40;;
4984;SDS011;2509;49.902;8.600;2023-11-18T16:41:15;25.83;;;23.67;;
4984;SDS011;2509;49.902;8.600;2023-11-18T16:44:18;6.07;;;1.80;;
4984;SDS011;2509;49.902;8.600;2023-11-18T16:47:20;4.23;;;1.00;;
4984;SDS011;2509;49.902;8.600;2023-11-18T16:50:24;5.40;;;1.30;;
4984;SDS011;2509;49.902;8.600;2023-11-18T16:53:26;4.23;;;1.10;;
4984;SDS011;2509;49.902;8.600;2023-11-18T16:56:28;4.13;;;1.30;;
4984;SDS011;2509;49.902;8.600;2023-11-18T16:59:30;3.90;;;1.10;;
4984;SDS011;2509;49.902;8.600;2023-11-18T17:02:32;5.13;;;1.30;;
4984;SDS011;2509;49.902;8.600;2023-11-18T17:05:35;4.03;;;1.10;;
4984;SDS011;2509;49.902;8.600;2023-11-18T17:08:37;4.53;;;0.90;;
4984;SDS011;2509;49.902;8.600;2023-11-18T17:11:39;7.10;;;1.50;;
4984;SDS011;2509;49.902;8.600;2023-11-18T17:14:41;4.93;;;1.27;;
4984;SDS011;2509;49.902;8.600;2023-11-18T17:17:43;3.90;;;1.07;;
4984;SDS011;2509;49.902;8.600;2023-11-18T17:20:48;5.70;;;1.37;;
4984;SDS011;2509;49.902;8.600;2023-11-18T17:23:49;4.80;;;1.47;;
4984;SDS011;2509;49.902;8.600;2023-11-18T17:26:52;4.03;;;0.93;;
4984;SDS011;2509;49.902;8.600;2023-11-18T17:29:54;5.27;;;1.27;;
4984;SDS011;2509;49.902;8.600;2023-11-18T17:32:55;4.47;;;1.30;;
4984;SDS011;2509;49.902;8.600;2023-11-18T17:35:58;6.13;;;1.90;;
4984;SDS011;2509;49.902;8.600;2023-11-18T17:39:01;6.63;;;4.77;;
4984;SDS011;2509;49.902;8.600;2023-11-18T17:42:03;6.47;;;2.13;;
4984;SDS011;2509;49.902;8.600;2023-11-18T17:45:06;5.30;;;1.93;;
4984;SDS011;2509;49.902;8.600;2023-11-18T17:48:08;7.37;;;1.70;;
4984;SDS011;2509;49.902;8.600;2023-11-18T17:51:11;4.87;;;1.40;;
4984;SDS011;2509;49.902;8.600;2023-11-18T17:54:12;4.73;;;1.80;;
4984;SDS011;2509;49.902;8.600;2023-11-18T17:57:14;4.20;;;1.30;;
4984;SDS011;2509;49.902;8.600;2023-11-18T18:00:16;4.30;;;1.30;;
4984;SDS011;2509;49.902;8.600;2023-11-18T18:03:22;6.00;;;1.50;;
4984;SDS011;2509;49.902;8.600;2023-11-18T18:06:25;5.00;;;1.40;;
4984;SDS011;2509;49.902;8.600;2023-11-18T18:09:27;5.87;;;1.50;;
4984;SDS011;2509;49.902;8.600;2023-11-18T18:12:28;3.83;;;1.03;;
4984;SDS011;2509;49.902;8.600;2023-11-18T18:15:30;4.80;;;1.60;;
4984;SDS011;2509;49.902;8.600;2023-11-18T18:18:32;5.97;;;1.20;;
4984;SDS011;2509;49.902;8.600;2023-11-18T18:21:35;14.83;;;13.43;;
4984;SDS011;2509;49.902;8.600;2023-11-18T18:24:37;5.80;;;1.90;;
4984;SDS011;2509;49.902;8.600;2023-11-18T18:27:39;5.43;;;1.50;;
4984;SDS011;2509;49.902;8.600;2023-11-18T18:30:41;5.00;;;1.53;;
4984;SDS011;2509;49.902;8.600;2023-11-18T18:33:42;5.27;;;1.20;;
4984;SDS011;2509;49.902;8.600;2023-11-18T18:36:46;3.90;;;0.80;;
4984;SDS011;2509;49.902;8.600;2023-11-18T18:39:47;5.00;;;1.00;;
4984;SDS011;2509;49.902;8.600;2023-11-18T18:42:52;4.03;;;1.20;;
4984;SDS011;2509;49.902;8.600;2023-11-18T18:45:54;4.20;;;1.20;;
4984;SDS011;2509;49.902;8.600;2023-11-18T18:48:56;3.63;;;0.80;;
4984;SDS011;2509;49.902;8.600;2023-11-18T18:51:59;4.30;;;1.20;;
4984;SDS011;2509;49.902;8.600;2023-11-18T18:55:00;4.43;;;1.20;;